Valentine, TX (79854)

2:04 AM CDT on August 30, 2014 (GMT -0500)
Marfa Municipal | Change Station
CLOSE
Current Station
Airport
Location: Marfa,
Elevation: 4849 ft
Nearby Weather Stations

Elev 4849 ft 30.37 °N, 104.01 °W | Updated 9 minutes ago

Clear
Clear
64 °F
Feels Like 64 °F
N
5
Wind Variable Wind from South

Today
High -- | Low -- °F
--% Chance of Precip.
Yesterday
High -- | Low -- °F
Precip. -- in
7:33 AM 8:23 PM
Waxing Crescent, 19% visible
Pressure 30.15 in
Visibility 10.0 miles
Clouds Clear
Dew Point 48 °F
Humidity 56%
Rainfall 0.00 in
Snow Depth Not available.
UV 0 out of 12
Pollen 9.20 out of 12
Air Quality Not available.
Flu Activity Not available.
METAR KMRF 300655Z AUTO 17004KT 10SM CLR 18/09 A3015 RMK AO1

More Conditions Fewer Conditions

Pressure 30.15 in
Visibility 10.0 miles
Clouds Clear
Dew Point 48 °F
Humidity 56%
Rainfall 0.00 in
Snow Depth Not available.
UV 0 out of 12
Pollen 9.20 out of 12
Air Quality Not available.
Flu Activity Not available.
METAR KMRF 300655Z AUTO 17004KT 10SM CLR 18/09 A3015 RMK AO1

More Conditions Fewer Conditions

10-Day Weather Forecast

Almanac

Astronomy

Aug. 30, 2014 Rise Set
Actual Time 7:33 AM CDT 8:23 PM CDT
Civil Twilight 7:08 AM CDT 8:47 PM CDT
Nautical Twilight 6:39 AM CDT 9:16 PM CDT
Astronomical Twilight 6:09 AM CDT 9:46 PM CDT
Moon 12:01 PM CDT 11:21 PM CDT
Length of Visible Light 13h 39m
Length of Day
12h 50m
Tomorrow will be 1m 47s shorter.
Waxing Crescent, 19% of the Moon is Illuminated
Today
Waxing Crescent
Sep 2
First Quarter
Sep 8
Full
Sep 15
Last Quarter
Sep 24
New

Today's Extremes

State Highs State Lows

Community

WunderPhotos

Upload Photos

1,748,462 photos uploaded!

Nearby

Snow Depth

Station Depth Elevation
No new snow has been reported.

Earthquake Activity

City Distance Mag. Time & Date
No recent earthquake activity has been reported nearby.
Minimum magnitude displayed is 2.5.

Coastal Water Temperatures

Place Temperature
No Stations Reporting

Nearby Weather Stations